메인 페이지
METAR-TAF:

METAR-TAF

공항 :

안타나나리보, 마다가스카르

이바토 공항

위도: 18-48S, 경도: 047-29E, 고도: 1279m

현재 날씨관측

예보는 28분 전, 09:00시(UTC)에 발표되었습니다.
남남서7kt남남동풍과 북서풍을 오가는
온도 28°C
습도 37%
기압 1015 hPa
시정 10km 이상
고도 2000ft 상공 구름 조금

METAR: FMMI 180900Z 20007KT 160V310 9999 FEW020 28/12 Q1015 NOSIG

시각: 12:28 (09:28 UTC)

예보

예보는 4 시간 28분 전, 05:00시(UTC)에 발표되었습니다.
예보 대상 시간: 18일 06시부터 19일 12시까지 (UTC)
남남동10kt
시정 10km 이상
고도 1700ft 상공 구름 보통
고도 2000ft 상공 구름 보통

TAF: FMMI 180500Z 1806/1912 16010KT 9999 SCT017 SCT020

4,000개 이상의 공항 관측 자료 및 예보 (METAR 및 TAF 보고).

지도상에서 검색 가능한 기상관측소가 노란 점과 빨간 점으로 표시되어 있습니다.

기상관측소 명을 보려면 표시 위로 마우스를 이동하세요.

날씨 관측과 예보를 보려면 클릭하세요.

지도 변경 : 확대하려면 엑스 표시가 있는 녹색 버튼, 축소하려면 빼기 표시가 있는 녹색 버튼, 다음 페이지의 지도를 보려면 녹색 화살표를 클릭하세요.


METAR-TAF: